Terminal Aerodrome Forecast
Issued by NWS Greer, SC

Home | Current Version | Previous Version | Text Only | Print | Product List | Glossary On
Versions: 1 2 3 4 5 6 7 8 9 10 11 12 13 14 15 16 17 18 19 20 21 22 23
000
FTUS42 KGSP 272059 AAA
TAFCLT
TAF AMD
KCLT 272059Z 2721/2818 23009G17KT P6SM SCT060
      TEMPO 2723/2803 VRB10G19KT 4SM -TSRA BKN060CB
     FM280400 13005KT P6SM BKN250
     FM281500 24007KT P6SM FEW250
     FM281600 24009G20KT P6SM FEW045=

USA.gov is the U.S. government's official web portal to all federal, state and local government web resources and services.